Kodiak, AK

6:45 AM AKDT on October 01, 2014 (GMT -0800)
Homer | Change Station
CLOSE
Current Station
Airport
Location: Homer,
Elevation: 82 ft
Nearby Weather Stations

Elev 82 ft 59.65 °N, 151.48 °W | Updated -441 second ago

Clear
Clear
44 °F
Feels Like 44 °F
N
0
Wind Variable Wind from North

Today
High -- | Low -- °F
--% Chance of Precip.
Yesterday
High -- | Low -- °F
Precip. -- in
8:14 AM 7:43 PM
Waxing Crescent, 48% visible
Pressure 30.15 in
Visibility 10.0 miles
Clouds Clear
Dew Point 25 °F
Humidity 47%
Rainfall 0.00 in
Snow Depth Not available.
UV 0 out of 12
Pollen Not available.
Air Quality Not available.
Flu Activity Not available.
METAR PAHO 301453Z 00000KT 10SM CLR 07/M04 A3014 RMK AO2 SLP208 T00671039 51014

More Conditions Fewer Conditions

Pressure 30.15 in
Visibility 10.0 miles
Clouds Clear
Dew Point 25 °F
Humidity 47%
Rainfall 0.00 in
Snow Depth Not available.
UV 0 out of 12
Pollen Not available.
Air Quality Not available.
Flu Activity Not available.
METAR PAHO 301453Z 00000KT 10SM CLR 07/M04 A3014 RMK AO2 SLP208 T00671039 51014

More Conditions Fewer Conditions

10-Day Weather Forecast

Almanac

Astronomy

Oct. 01, 2014 Rise Set
Actual Time 8:14 AM AKDT 7:43 PM AKDT
Civil Twilight 7:35 AM AKDT 8:21 PM AKDT
Nautical Twilight 6:49 AM AKDT 9:07 PM AKDT
Astronomical Twilight 6:02 AM AKDT 9:54 PM AKDT
Moon 4:18 PM AKDT No Moon Set
Length of Visible Light 12h 46m
Length of Day
11h 28m
Tomorrow will be 4m 56s shorter.
Waxing Crescent, 48% of the Moon is Illuminated
Today
Waxing Crescent
Oct 1
First Quarter
Oct 8
Full
Oct 15
Last Quarter
Oct 23
New

Today's Extremes

State Highs State Lows

Community

WunderPhotos

Upload Photos

1,757,960 photos uploaded!

Nearby

Snow Depth

Station Depth Elevation
Fort Yukon 1 in 430 ft
Gobblers Knob 4 in 2030 ft
Port Graham 0 in 300 ft
Summit Creek 0 in 1400 ft
MF Bradley River 2 in 2300 ft

Earthquake Activity

City Distance Mag. Time & Date
No recent earthquake activity has been reported nearby.
Minimum magnitude displayed is 2.5.

Coastal Water Temperatures

Place Temperature
No Stations Reporting

Nearby Weather Stations